createdAt,value
2023-03-16T08:21:49.227Z,27.3099
2023-03-16T08:22:37.852Z,26.5586
2023-03-16T08:23:38.824Z,26.5274
2023-03-16T08:33:53.929Z,27.3895
2023-03-16T08:34:54.941Z,26.4299
2023-03-16T08:35:56.074Z,26.5382
2023-03-16T11:32:46.706Z,27.6536
2023-03-16T11:33:47.752Z,27.5626
2023-03-16T11:34:48.797Z,27.5661
2023-03-16T11:35:58.509Z,27.4355
2023-03-16T11:36:49.492Z,27.5008
2023-03-16T11:37:50.489Z,27.4642
2023-03-16T11:38:51.492Z,27.4153
2023-03-16T11:39:52.465Z,27.3603
2023-03-16T11:40:53.399Z,27.3208
2023-03-16T11:41:53.735Z,27.3053
2023-03-16T11:42:54.775Z,27.3155
2023-03-16T11:43:55.741Z,27.3773
2023-03-16T11:44:56.694Z,27.1318
2023-03-16T11:45:57.666Z,27.3065
2023-03-16T11:46:58.589Z,27.2062
2023-03-16T11:47:59.539Z,27.3756
2023-03-16T11:49:00.473Z,27.2153
2023-03-16T11:50:01.392Z,27.3972
2023-03-16T11:51:02.355Z,27.3283
2023-03-16T11:52:03.282Z,27.1871
2023-03-16T11:53:04.221Z,27.4071
2023-03-16T11:54:05.139Z,27.4136
2023-03-16T11:55:06.085Z,27.3037
2023-03-16T11:56:06.998Z,27.2313
2023-03-16T11:57:07.943Z,27.2299
2023-03-16T11:58:08.847Z,27.1980
2023-03-16T11:59:09.758Z,27.2912
2023-03-16T12:00:10.666Z,27.4129
2023-03-16T12:01:11.548Z,27.3623
2023-03-16T12:02:12.488Z,27.3192
2023-03-16T12:03:13.413Z,27.2829
2023-03-16T12:04:14.320Z,27.2966
2023-03-16T12:05:15.231Z,27.1248
2023-03-16T12:06:22.889Z,27.0803
2023-03-16T12:07:16.812Z,27.3206
2023-03-16T12:08:17.692Z,27.3386
2023-03-16T12:09:18.626Z,27.2410
2023-03-16T12:10:19.498Z,27.1444
2023-03-16T12:11:20.436Z,27.0846
2023-03-16T12:12:21.345Z,27.0656
2023-03-16T12:13:22.289Z,27.2025
2023-03-16T12:14:23.205Z,26.9811
2023-03-16T12:15:24.200Z,27.1890
2023-03-16T12:16:26.165Z,27.2167
2023-03-16T12:17:25.899Z,27.2843
2023-03-16T12:18:26.861Z,27.2247
2023-03-16T12:19:27.785Z,27.2621
2023-03-16T12:20:28.696Z,27.2598
2023-03-16T12:21:29.647Z,27.3515
2023-03-16T12:22:30.564Z,27.2633
2023-03-16T12:23:31.519Z,27.3624
2023-03-16T12:24:32.436Z,27.6301
2023-03-16T12:25:33.358Z,27.5120
2023-03-16T12:26:34.268Z,27.6131
2023-03-16T12:27:35.224Z,27.6165
2023-03-16T12:28:36.408Z,27.5665
2023-03-16T12:29:36.129Z,27.5571
2023-03-16T12:30:37.088Z,27.4310
2023-03-16T12:31:38.150Z,27.4348
2023-03-16T12:32:39.113Z,27.3999
2023-03-16T12:33:38.981Z,27.5765
2023-03-16T12:34:39.925Z,27.4705
2023-03-16T12:35:40.903Z,27.4641
2023-03-16T12:36:41.804Z,27.5235
2023-03-16T12:37:42.784Z,27.5120
2023-03-16T12:38:43.727Z,27.4554
2023-03-16T12:39:44.635Z,27.4403
2023-03-16T12:40:45.594Z,27.4123
2023-03-16T12:41:46.523Z,27.4048
2023-03-16T12:42:47.477Z,27.4231
2023-03-16T12:43:48.421Z,27.4255
2023-03-16T12:44:49.360Z,27.4054
2023-03-16T12:45:50.343Z,27.3528
2023-03-16T12:46:51.244Z,27.3657
2023-03-16T12:47:52.188Z,27.3610
2023-03-16T12:48:53.124Z,27.3899
2023-03-16T12:49:54.016Z,27.3728
2023-03-16T12:50:54.957Z,27.3472
2023-03-16T12:51:55.898Z,27.4112
2023-03-16T12:52:56.823Z,27.4689
2023-03-16T12:53:57.789Z,27.4237
2023-03-16T12:54:58.738Z,27.3801
2023-03-16T12:55:59.676Z,27.3179
2023-03-16T12:57:00.623Z,27.3113
2023-03-16T12:58:01.635Z,27.3909
2023-03-16T12:59:02.575Z,27.3980
2023-03-16T13:00:03.491Z,27.3901
2023-03-16T13:01:06.084Z,27.3962
2023-03-16T13:02:04.612Z,27.4039
2023-03-16T13:03:05.532Z,27.3771
2023-03-16T13:04:06.546Z,27.3997
2023-03-16T13:05:07.466Z,27.4201
2023-03-16T13:06:08.407Z,27.3964
2023-03-16T13:07:09.361Z,27.3875
2023-03-16T13:08:10.301Z,27.4448
2023-03-16T13:09:11.276Z,27.3906
2023-03-16T13:10:12.336Z,27.4580
2023-03-16T13:11:13.250Z,27.5092
2023-03-16T13:12:14.813Z,27.5410
2023-03-16T13:13:14.534Z,27.4483
2023-03-16T13:14:15.500Z,27.3327
2023-03-16T13:15:16.413Z,27.1955
2023-03-16T13:16:17.381Z,27.2688
2023-03-16T13:17:18.341Z,27.2935
2023-03-16T13:18:19.259Z,27.2519
2023-03-16T13:19:20.237Z,27.3828
2023-03-16T13:20:30.233Z,27.1957
2023-03-16T13:21:21.821Z,27.0769
2023-03-16T13:22:22.767Z,27.1119
2023-03-16T13:23:23.694Z,27.1718
2023-03-16T13:24:24.633Z,27.1887
2023-03-16T13:25:25.581Z,27.2251
2023-03-16T13:26:26.509Z,27.1291
2023-03-16T13:27:27.519Z,27.1861
2023-03-16T13:28:28.505Z,27.1720
2023-03-16T13:29:29.465Z,27.0822
2023-03-16T13:30:30.823Z,27.1356
2023-03-16T13:31:30.732Z,27.0943
2023-03-16T13:32:31.714Z,27.1848
2023-03-16T13:33:32.595Z,27.2171
2023-03-16T13:34:33.570Z,27.1256
2023-03-16T13:35:34.511Z,27.1923
2023-03-16T13:36:35.470Z,27.2210
2023-03-16T13:37:36.393Z,27.2605
2023-03-16T13:38:37.328Z,27.2200
2023-03-16T13:39:38.268Z,27.2197
2023-03-16T13:40:39.223Z,27.2766
2023-03-16T13:41:42.253Z,27.2416
2023-03-16T13:42:40.427Z,27.2018
2023-03-16T13:43:41.413Z,27.1696
2023-03-16T13:44:42.395Z,27.2401
2023-03-16T13:45:43.432Z,27.2015
2023-03-16T13:46:44.377Z,27.3073
2023-03-16T13:47:45.338Z,27.3437
2023-03-16T13:48:46.405Z,27.2668
2023-03-16T13:49:47.365Z,27.3326
2023-03-16T13:50:48.305Z,27.2551
2023-03-16T13:51:49.258Z,27.1945
2023-03-16T13:52:50.208Z,27.2477
2023-03-16T13:53:51.145Z,27.2377
2023-03-16T13:54:52.104Z,27.2434
2023-03-16T13:55:53.054Z,27.2907
2023-03-16T13:56:54.018Z,27.2264
2023-03-16T13:57:54.936Z,27.2952
2023-03-16T13:58:55.873Z,27.4406
2023-03-16T13:59:56.794Z,27.1987
2023-03-16T14:00:57.772Z,27.1914
2023-03-16T14:01:58.676Z,27.2535
2023-03-16T14:02:59.653Z,27.3133
2023-03-16T14:04:00.555Z,27.1845
2023-03-16T14:05:01.515Z,27.2331
2023-03-16T14:06:02.470Z,27.1054
2023-03-16T14:07:03.438Z,27.2289
2023-03-16T14:08:04.368Z,27.1988
2023-03-16T14:09:05.362Z,27.1289
2023-03-16T14:10:06.277Z,27.1795
2023-03-16T14:11:07.270Z,27.1438
2023-03-16T14:12:08.170Z,27.1533
2023-03-16T14:13:09.156Z,27.0418
2023-03-16T14:14:10.190Z,27.0689
2023-03-16T14:15:11.138Z,27.2076
2023-03-16T14:16:12.124Z,27.1918
2023-03-16T14:17:13.041Z,27.1124
2023-03-16T14:18:13.958Z,27.1312
2023-03-16T14:19:14.893Z,27.0711
2023-03-16T14:20:15.832Z,27.0640
2023-03-16T14:21:16.794Z,27.2448
2023-03-16T14:22:17.675Z,27.1596
2023-03-16T14:23:18.596Z,27.0749
2023-03-16T14:24:19.617Z,27.1132
2023-03-16T14:25:20.559Z,26.9736
2023-03-16T14:26:21.603Z,27.1278
2023-03-16T14:27:22.489Z,27.1380
2023-03-16T14:28:23.410Z,27.0620
2023-03-16T14:29:24.347Z,27.0906
2023-03-16T14:30:25.300Z,27.1678
2023-03-16T14:31:26.235Z,27.1267
2023-03-16T14:32:27.230Z,27.0494
2023-03-16T14:33:28.164Z,27.0258
2023-03-16T14:34:29.188Z,27.1922
2023-03-16T14:35:30.546Z,27.1467
2023-03-16T14:36:30.434Z,26.9348
2023-03-16T14:37:31.380Z,27.1119
2023-03-16T14:38:32.356Z,27.1467
2023-03-16T14:39:33.314Z,27.1180
2023-03-16T14:40:34.254Z,26.8520
2023-03-16T14:41:35.192Z,27.0130
2023-03-16T14:42:36.186Z,26.9281
2023-03-16T14:43:36.107Z,26.8977
2023-03-16T14:44:37.065Z,26.8012
2023-03-16T14:45:38.012Z,26.9153
2023-03-16T14:46:39.042Z,27.1493
2023-03-16T14:47:39.946Z,27.1383
2023-03-16T14:48:40.890Z,26.8174
2023-03-16T14:49:43.407Z,27.0767
2023-03-16T14:50:41.965Z,26.8785
2023-03-16T14:51:42.865Z,26.8801
2023-03-16T14:52:43.798Z,26.9859
2023-03-16T14:53:44.717Z,27.1588
2023-03-16T14:54:45.797Z,27.0526
2023-03-16T14:55:46.719Z,27.0786
2023-03-16T14:56:47.666Z,26.8139
2023-03-16T14:57:48.612Z,26.7937
2023-03-16T14:58:49.558Z,26.8971
2023-03-16T14:59:50.491Z,27.0995
2023-03-16T15:00:53.351Z,27.1690
2023-03-16T15:01:51.957Z,27.1310
2023-03-16T15:02:53.008Z,27.0405
2023-03-16T15:03:53.916Z,27.1202
2023-03-16T15:04:54.833Z,26.9793
2023-03-16T15:05:55.753Z,27.0597
2023-03-16T15:06:56.625Z,27.0322
2023-03-16T15:07:57.573Z,26.9129
2023-03-16T15:08:58.539Z,26.9751
2023-03-16T15:09:59.465Z,27.0958
2023-03-16T15:11:00.379Z,26.9964
2023-03-16T15:12:01.336Z,26.8800
2023-03-16T15:13:02.249Z,26.8847
2023-03-16T15:14:03.168Z,26.8691
2023-03-16T15:15:04.091Z,26.9727
2023-03-16T15:16:05.064Z,26.9935
2023-03-16T15:17:05.970Z,26.9096
2023-03-16T15:18:07.556Z,26.8877
2023-03-16T15:19:07.247Z,27.0673
2023-03-16T15:20:08.349Z,27.0931
2023-03-16T15:21:08.104Z,27.1259
2023-03-16T15:22:09.071Z,27.1035
2023-03-16T15:23:10.000Z,27.3236
2023-03-16T15:24:10.973Z,27.2318
2023-03-16T15:25:12.002Z,27.1616
2023-03-16T15:26:13.074Z,27.0353
2023-03-16T15:27:14.008Z,27.1020
2023-03-16T15:28:14.934Z,27.1879
2023-03-16T15:29:15.873Z,27.1884
2023-03-16T15:30:16.837Z,27.1995
2023-03-16T15:31:17.895Z,27.1896
2023-03-16T15:32:18.819Z,27.0974
2023-03-16T15:33:19.769Z,27.0761
2023-03-16T15:34:20.711Z,26.9638
2023-03-16T15:35:21.632Z,26.9638
2023-03-16T15:36:22.590Z,27.0345
2023-03-16T15:37:23.507Z,27.0194
2023-03-16T15:38:24.447Z,27.0253
2023-03-16T15:39:25.378Z,26.9978
2023-03-16T15:40:26.476Z,26.9379
2023-03-16T15:41:30.155Z,27.3142
2023-03-16T15:42:26.850Z,27.3641
2023-03-16T15:43:27.751Z,27.4242
2023-03-16T15:44:28.730Z,27.3776
2023-03-16T15:45:29.687Z,27.3385
2023-03-16T15:46:30.665Z,27.3848
2023-03-16T15:47:31.613Z,27.3817
2023-03-16T15:48:32.554Z,27.3259
2023-03-16T15:49:46.510Z,27.3858
2023-03-16T15:50:34.087Z,27.3213
2023-03-16T15:51:35.043Z,27.3567
2023-03-16T15:52:35.986Z,27.3819
2023-03-16T15:53:36.929Z,27.3913
2023-03-16T15:54:37.844Z,27.3235
2023-03-16T15:55:38.797Z,27.3410
2023-03-16T15:56:52.822Z,27.3429
2023-03-16T15:57:40.377Z,27.3015
2023-03-16T15:58:41.296Z,27.3008
2023-03-16T15:59:42.264Z,27.3316
2023-03-16T16:00:43.316Z,27.3662
2023-03-16T16:01:44.224Z,27.3744
2023-03-16T16:02:45.167Z,27.3233
2023-03-16T16:03:46.128Z,27.2821
2023-03-16T16:04:47.038Z,27.2959
2023-03-16T16:05:47.959Z,27.2963
2023-03-16T16:06:48.904Z,27.2775
2023-03-16T16:07:49.843Z,27.2702
2023-03-16T16:08:50.771Z,27.2954
2023-03-16T16:09:51.676Z,27.3310
2023-03-16T16:10:52.582Z,27.2486
2023-03-16T16:11:53.525Z,27.2719
2023-03-16T16:12:54.441Z,27.2497
2023-03-16T16:13:55.344Z,27.1719
2023-03-16T16:14:56.350Z,27.2538
2023-03-16T16:15:57.340Z,27.2408
2023-03-16T16:16:58.332Z,27.2281
2023-03-16T16:18:19.687Z,27.1543
2023-03-16T16:18:59.896Z,27.2108
2023-03-16T16:20:00.897Z,27.2135
2023-03-16T16:21:01.874Z,27.2156
2023-03-16T16:22:02.830Z,27.1204
2023-03-16T16:23:03.754Z,27.2491
2023-03-16T16:24:04.671Z,27.2442
2023-03-16T16:25:05.581Z,27.1983
2023-03-16T16:26:06.548Z,27.2393
2023-03-16T16:27:07.451Z,27.2947
2023-03-16T16:28:08.422Z,27.2643
2023-03-16T16:29:09.349Z,27.2202
2023-03-16T16:30:10.290Z,27.2616
2023-03-16T16:31:11.228Z,27.1959
2023-03-16T16:32:12.231Z,27.2452
2023-03-16T16:33:13.250Z,27.2495
2023-03-16T16:34:14.195Z,27.2221
2023-03-16T16:35:15.152Z,27.1430
2023-03-16T16:36:15.857Z,27.2118
2023-03-16T16:37:16.564Z,27.2150
2023-03-16T16:38:17.522Z,27.2232
2023-03-16T16:39:18.456Z,27.2028
2023-03-16T16:40:19.416Z,27.2241
2023-03-16T16:41:20.355Z,27.3369
2023-03-16T16:42:21.280Z,27.2597
2023-03-16T16:43:22.222Z,27.2222
2023-03-16T16:44:23.162Z,27.2434
2023-03-16T16:45:24.105Z,27.2408
2023-03-16T16:46:25.121Z,27.3358
2023-03-16T16:47:26.051Z,27.2525
2023-03-16T16:48:26.980Z,27.2225
2023-03-16T16:49:27.935Z,27.2227
2023-03-16T16:50:28.829Z,27.1910
2023-03-16T16:51:29.773Z,27.2346
2023-03-16T16:52:30.713Z,27.1949
2023-03-16T16:53:31.662Z,27.2229
2023-03-16T16:54:32.544Z,27.2471
2023-03-16T16:55:33.484Z,27.1906
2023-03-16T16:56:34.448Z,27.2506
2023-03-16T16:57:35.444Z,27.2543
2023-03-16T16:58:36.359Z,27.2601
2023-03-16T16:59:37.278Z,27.3312
2023-03-16T17:00:37.539Z,27.2598
2023-03-16T17:01:38.469Z,27.2366
2023-03-16T17:02:41.929Z,27.2518
2023-03-16T17:03:39.266Z,27.2525
2023-03-16T17:04:40.231Z,27.2489
2023-03-16T17:05:41.170Z,27.2545
2023-03-16T17:06:42.086Z,27.1891
2023-03-16T17:07:42.989Z,27.1960
2023-03-16T17:08:43.936Z,27.1820
2023-03-16T17:09:44.845Z,27.1567
2023-03-16T17:10:45.759Z,27.1496
2023-03-16T17:11:46.669Z,27.1750
2023-03-16T17:12:47.583Z,27.1172
2023-03-16T17:13:48.487Z,27.2157
2023-03-16T17:14:49.402Z,27.2694
2023-03-16T17:15:50.429Z,27.2549
2023-03-16T17:16:51.417Z,27.2329
2023-03-16T17:17:52.307Z,27.2274
2023-03-16T17:18:53.239Z,27.2558
2023-03-16T17:19:54.119Z,27.2551
2023-03-16T17:20:55.100Z,27.1944
2023-03-16T17:21:56.055Z,27.2537
2023-03-16T17:22:56.983Z,27.2301
